sensor_id;sensor_type;location;lat;lon;timestamp;P1;durP1;ratioP1;P2;durP2;ratioP2
41446;SDS011;27185;52.040;4.490;2023-07-30T00:00:35;17.83;;;3.75;;
41446;SDS011;27185;52.040;4.490;2023-07-30T00:03:21;18.98;;;4.15;;
41446;SDS011;27185;52.040;4.490;2023-07-30T00:06:07;21.77;;;3.92;;
41446;SDS011;27185;52.040;4.490;2023-07-30T00:08:52;17.55;;;3.30;;
41446;SDS011;27185;52.040;4.490;2023-07-30T00:11:38;24.35;;;4.03;;
41446;SDS011;27185;52.040;4.490;2023-07-30T00:14:23;24.45;;;4.10;;
41446;SDS011;27185;52.040;4.490;2023-07-30T00:17:09;19.52;;;3.45;;
41446;SDS011;27185;52.040;4.490;2023-07-30T00:19:54;21.95;;;3.90;;
41446;SDS011;27185;52.040;4.490;2023-07-30T00:22:40;22.33;;;4.07;;
41446;SDS011;27185;52.040;4.490;2023-07-30T00:25:26;20.73;;;3.28;;
41446;SDS011;27185;52.040;4.490;2023-07-30T00:28:11;17.15;;;2.58;;
41446;SDS011;27185;52.040;4.490;2023-07-30T00:30:57;21.75;;;3.33;;
41446;SDS011;27185;52.040;4.490;2023-07-30T00:33:42;17.90;;;3.10;;
41446;SDS011;27185;52.040;4.490;2023-07-30T00:36:28;21.45;;;3.85;;
41446;SDS011;27185;52.040;4.490;2023-07-30T00:39:13;22.38;;;4.20;;
41446;SDS011;27185;52.040;4.490;2023-07-30T00:41:59;24.10;;;4.00;;
41446;SDS011;27185;52.040;4.490;2023-07-30T00:44:44;17.80;;;2.88;;
41446;SDS011;27185;52.040;4.490;2023-07-30T00:47:30;18.15;;;3.63;;
41446;SDS011;27185;52.040;4.490;2023-07-30T00:50:16;18.40;;;3.08;;
41446;SDS011;27185;52.040;4.490;2023-07-30T00:53:02;16.13;;;2.83;;
41446;SDS011;27185;52.040;4.490;2023-07-30T00:55:48;18.65;;;3.53;;
41446;SDS011;27185;52.040;4.490;2023-07-30T00:58:33;19.88;;;3.58;;
41446;SDS011;27185;52.040;4.490;2023-07-30T01:01:20;13.90;;;2.83;;
41446;SDS011;27185;52.040;4.490;2023-07-30T01:04:05;13.20;;;3.08;;
41446;SDS011;27185;52.040;4.490;2023-07-30T01:06:51;18.38;;;3.63;;
41446;SDS011;27185;52.040;4.490;2023-07-30T01:09:36;28.83;;;3.92;;
41446;SDS011;27185;52.040;4.490;2023-07-30T01:12:22;21.08;;;4.18;;
41446;SDS011;27185;52.040;4.490;2023-07-30T01:15:08;21.08;;;3.35;;
41446;SDS011;27185;52.040;4.490;2023-07-30T01:17:55;34.35;;;4.30;;
41446;SDS011;27185;52.040;4.490;2023-07-30T01:20:40;27.13;;;4.18;;
41446;SDS011;27185;52.040;4.490;2023-07-30T01:23:26;21.00;;;3.17;;
41446;SDS011;27185;52.040;4.490;2023-07-30T01:26:12;20.45;;;3.13;;
41446;SDS011;27185;52.040;4.490;2023-07-30T01:30:03;20.88;;;3.03;;
41446;SDS011;27185;52.040;4.490;2023-07-30T01:32:27;31.10;;;3.50;;
41446;SDS011;27185;52.040;4.490;2023-07-30T01:35:18;23.45;;;3.78;;
41446;SDS011;27185;52.040;4.490;2023-07-30T01:38:07;22.60;;;4.03;;
41446;SDS011;27185;52.040;4.490;2023-07-30T01:40:54;27.65;;;3.03;;
41446;SDS011;27185;52.040;4.490;2023-07-30T01:43:39;17.92;;;3.05;;
41446;SDS011;27185;52.040;4.490;2023-07-30T01:46:25;24.30;;;3.58;;
41446;SDS011;27185;52.040;4.490;2023-07-30T01:49:10;21.75;;;4.35;;
41446;SDS011;27185;52.040;4.490;2023-07-30T01:51:56;18.92;;;3.50;;
41446;SDS011;27185;52.040;4.490;2023-07-30T01:54:42;22.55;;;3.63;;
41446;SDS011;27185;52.040;4.490;2023-07-30T01:57:27;20.80;;;3.25;;
41446;SDS011;27185;52.040;4.490;2023-07-30T02:00:13;18.55;;;2.72;;
41446;SDS011;27185;52.040;4.490;2023-07-30T02:02:59;17.00;;;3.38;;
41446;SDS011;27185;52.040;4.490;2023-07-30T02:05:44;20.02;;;2.85;;
41446;SDS011;27185;52.040;4.490;2023-07-30T02:08:30;27.13;;;3.65;;
41446;SDS011;27185;52.040;4.490;2023-07-30T02:11:15;21.67;;;3.42;;
41446;SDS011;27185;52.040;4.490;2023-07-30T02:14:01;22.77;;;3.47;;
41446;SDS011;27185;52.040;4.490;2023-07-30T02:16:46;16.35;;;3.22;;
41446;SDS011;27185;52.040;4.490;2023-07-30T02:19:32;22.45;;;2.88;;
41446;SDS011;27185;52.040;4.490;2023-07-30T02:22:18;21.13;;;3.47;;
41446;SDS011;27185;52.040;4.490;2023-07-30T02:25:03;25.70;;;3.78;;
41446;SDS011;27185;52.040;4.490;2023-07-30T02:27:49;21.60;;;3.53;;
41446;SDS011;27185;52.040;4.490;2023-07-30T02:30:35;22.60;;;3.63;;
41446;SDS011;27185;52.040;4.490;2023-07-30T02:33:21;13.68;;;2.80;;
41446;SDS011;27185;52.040;4.490;2023-07-30T02:36:07;22.80;;;3.20;;
41446;SDS011;27185;52.040;4.490;2023-07-30T02:38:53;18.77;;;3.63;;
41446;SDS011;27185;52.040;4.490;2023-07-30T02:41:39;20.40;;;3.42;;
41446;SDS011;27185;52.040;4.490;2023-07-30T02:44:24;16.55;;;2.95;;
41446;SDS011;27185;52.040;4.490;2023-07-30T02:47:10;19.25;;;2.90;;
41446;SDS011;27185;52.040;4.490;2023-07-30T02:49:55;21.92;;;2.75;;
41446;SDS011;27185;52.040;4.490;2023-07-30T02:52:41;17.80;;;3.35;;
41446;SDS011;27185;52.040;4.490;2023-07-30T02:55:26;25.70;;;3.35;;
41446;SDS011;27185;52.040;4.490;2023-07-30T02:58:12;21.60;;;3.00;;
41446;SDS011;27185;52.040;4.490;2023-07-30T03:01:04;14.60;;;2.30;;
41446;SDS011;27185;52.040;4.490;2023-07-30T03:03:51;21.92;;;3.53;;
41446;SDS011;27185;52.040;4.490;2023-07-30T03:06:37;15.65;;;2.90;;
41446;SDS011;27185;52.040;4.490;2023-07-30T03:09:23;13.55;;;2.40;;
41446;SDS011;27185;52.040;4.490;2023-07-30T03:12:08;23.55;;;2.63;;
41446;SDS011;27185;52.040;4.490;2023-07-30T03:14:54;18.42;;;2.78;;
41446;SDS011;27185;52.040;4.490;2023-07-30T03:17:39;11.27;;;1.73;;
41446;SDS011;27185;52.040;4.490;2023-07-30T03:20:25;16.02;;;1.98;;
41446;SDS011;27185;52.040;4.490;2023-07-30T03:23:11;12.20;;;1.95;;
41446;SDS011;27185;52.040;4.490;2023-07-30T03:25:56;12.88;;;1.83;;
41446;SDS011;27185;52.040;4.490;2023-07-30T03:28:43;13.68;;;2.28;;
41446;SDS011;27185;52.040;4.490;2023-07-30T03:31:28;9.57;;;1.85;;
41446;SDS011;27185;52.040;4.490;2023-07-30T03:34:14;11.90;;;2.35;;
41446;SDS011;27185;52.040;4.490;2023-07-30T03:36:59;15.07;;;2.60;;
41446;SDS011;27185;52.040;4.490;2023-07-30T03:39:45;8.98;;;1.50;;
41446;SDS011;27185;52.040;4.490;2023-07-30T03:42:30;10.05;;;1.27;;
41446;SDS011;27185;52.040;4.490;2023-07-30T03:45:16;12.65;;;2.10;;
41446;SDS011;27185;52.040;4.490;2023-07-30T03:48:02;12.82;;;1.98;;
41446;SDS011;27185;52.040;4.490;2023-07-30T03:50:48;7.70;;;1.95;;
41446;SDS011;27185;52.040;4.490;2023-07-30T03:53:33;12.65;;;1.98;;
41446;SDS011;27185;52.040;4.490;2023-07-30T03:56:19;10.80;;;1.40;;
41446;SDS011;27185;52.040;4.490;2023-07-30T03:59:04;11.20;;;1.50;;
41446;SDS011;27185;52.040;4.490;2023-07-30T04:01:50;10.20;;;1.63;;
41446;SDS011;27185;52.040;4.490;2023-07-30T04:04:36;8.00;;;0.90;;
41446;SDS011;27185;52.040;4.490;2023-07-30T04:07:21;12.18;;;1.30;;
41446;SDS011;27185;52.040;4.490;2023-07-30T04:10:07;7.38;;;1.15;;
41446;SDS011;27185;52.040;4.490;2023-07-30T04:12:53;12.80;;;1.80;;
41446;SDS011;27185;52.040;4.490;2023-07-30T04:15:38;9.07;;;1.17;;
41446;SDS011;27185;52.040;4.490;2023-07-30T04:18:24;8.38;;;1.15;;
41446;SDS011;27185;52.040;4.490;2023-07-30T04:21:10;6.20;;;0.90;;
41446;SDS011;27185;52.040;4.490;2023-07-30T04:23:55;6.35;;;0.80;;
41446;SDS011;27185;52.040;4.490;2023-07-30T04:26:41;4.60;;;0.80;;
41446;SDS011;27185;52.040;4.490;2023-07-30T04:29:26;4.72;;;0.70;;
41446;SDS011;27185;52.040;4.490;2023-07-30T04:32:12;3.85;;;0.73;;
41446;SDS011;27185;52.040;4.490;2023-07-30T04:34:57;6.85;;;1.10;;
41446;SDS011;27185;52.040;4.490;2023-07-30T04:37:43;10.82;;;0.90;;
41446;SDS011;27185;52.040;4.490;2023-07-30T04:40:29;6.13;;;1.20;;
41446;SDS011;27185;52.040;4.490;2023-07-30T04:43:14;6.68;;;0.98;;
41446;SDS011;27185;52.040;4.490;2023-07-30T04:46:00;4.80;;;0.82;;
41446;SDS011;27185;52.040;4.490;2023-07-30T04:48:45;6.47;;;0.88;;
41446;SDS011;27185;52.040;4.490;2023-07-30T04:51:31;5.28;;;0.63;;
41446;SDS011;27185;52.040;4.490;2023-07-30T04:54:17;4.82;;;0.80;;
41446;SDS011;27185;52.040;4.490;2023-07-30T04:57:02;3.75;;;0.60;;
41446;SDS011;27185;52.040;4.490;2023-07-30T04:59:48;7.65;;;0.75;;
41446;SDS011;27185;52.040;4.490;2023-07-30T05:02:34;8.30;;;1.00;;
41446;SDS011;27185;52.040;4.490;2023-07-30T05:05:19;3.92;;;0.88;;
41446;SDS011;27185;52.040;4.490;2023-07-30T05:08:05;5.28;;;1.00;;
41446;SDS011;27185;52.040;4.490;2023-07-30T05:10:50;4.88;;;0.70;;
41446;SDS011;27185;52.040;4.490;2023-07-30T05:13:36;4.38;;;0.82;;
41446;SDS011;27185;52.040;4.490;2023-07-30T05:16:21;6.75;;;0.90;;
41446;SDS011;27185;52.040;4.490;2023-07-30T05:19:07;7.32;;;1.15;;
41446;SDS011;27185;52.040;4.490;2023-07-30T05:21:53;6.85;;;1.13;;
41446;SDS011;27185;52.040;4.490;2023-07-30T05:24:38;13.43;;;1.10;;
41446;SDS011;27185;52.040;4.490;2023-07-30T05:27:24;7.43;;;1.20;;
41446;SDS011;27185;52.040;4.490;2023-07-30T05:30:13;6.68;;;0.88;;
41446;SDS011;27185;52.040;4.490;2023-07-30T05:32:58;11.90;;;1.55;;
41446;SDS011;27185;52.040;4.490;2023-07-30T05:35:44;7.53;;;0.98;;
41446;SDS011;27185;52.040;4.490;2023-07-30T05:38:30;12.82;;;1.77;;
41446;SDS011;27185;52.040;4.490;2023-07-30T05:41:16;20.10;;;2.20;;
41446;SDS011;27185;52.040;4.490;2023-07-30T05:44:01;13.48;;;2.38;;
41446;SDS011;27185;52.040;4.490;2023-07-30T05:46:47;14.27;;;2.53;;
41446;SDS011;27185;52.040;4.490;2023-07-30T05:49:33;12.65;;;1.90;;
41446;SDS011;27185;52.040;4.490;2023-07-30T05:52:18;17.17;;;3.05;;
41446;SDS011;27185;52.040;4.490;2023-07-30T05:55:04;15.18;;;2.63;;
41446;SDS011;27185;52.040;4.490;2023-07-30T05:57:50;15.50;;;2.67;;
41446;SDS011;27185;52.040;4.490;2023-07-30T06:00:35;18.20;;;2.72;;
41446;SDS011;27185;52.040;4.490;2023-07-30T06:03:21;21.05;;;3.58;;
41446;SDS011;27185;52.040;4.490;2023-07-30T06:06:07;20.73;;;2.92;;
41446;SDS011;27185;52.040;4.490;2023-07-30T06:08:55;17.77;;;3.72;;
41446;SDS011;27185;52.040;4.490;2023-07-30T06:11:41;17.98;;;3.67;;
41446;SDS011;27185;52.040;4.490;2023-07-30T06:14:26;17.52;;;2.92;;
41446;SDS011;27185;52.040;4.490;2023-07-30T06:17:12;18.92;;;2.97;;
41446;SDS011;27185;52.040;4.490;2023-07-30T06:19:58;16.13;;;2.95;;
41446;SDS011;27185;52.040;4.490;2023-07-30T06:22:43;17.73;;;3.40;;
41446;SDS011;27185;52.040;4.490;2023-07-30T06:25:29;14.10;;;2.40;;
41446;SDS011;27185;52.040;4.490;2023-07-30T06:28:16;20.47;;;2.77;;
41446;SDS011;27185;52.040;4.490;2023-07-30T06:31:02;16.67;;;1.98;;
41446;SDS011;27185;52.040;4.490;2023-07-30T06:33:47;11.68;;;2.70;;
41446;SDS011;27185;52.040;4.490;2023-07-30T06:36:33;17.95;;;3.22;;
41446;SDS011;27185;52.040;4.490;2023-07-30T06:39:19;14.68;;;2.72;;
41446;SDS011;27185;52.040;4.490;2023-07-30T06:42:04;13.38;;;2.20;;
41446;SDS011;27185;52.040;4.490;2023-07-30T06:44:50;14.85;;;2.83;;
41446;SDS011;27185;52.040;4.490;2023-07-30T06:47:35;15.88;;;2.80;;
41446;SDS011;27185;52.040;4.490;2023-07-30T06:50:21;10.50;;;1.95;;
41446;SDS011;27185;52.040;4.490;2023-07-30T06:53:07;13.27;;;2.10;;
41446;SDS011;27185;52.040;4.490;2023-07-30T06:55:52;12.98;;;2.33;;
41446;SDS011;27185;52.040;4.490;2023-07-30T06:58:38;9.73;;;1.88;;
41446;SDS011;27185;52.040;4.490;2023-07-30T07:01:23;11.52;;;2.03;;
41446;SDS011;27185;52.040;4.490;2023-07-30T07:04:09;13.77;;;2.15;;
41446;SDS011;27185;52.040;4.490;2023-07-30T07:06:54;20.48;;;2.65;;
41446;SDS011;27185;52.040;4.490;2023-07-30T07:09:40;15.13;;;2.75;;
41446;SDS011;27185;52.040;4.490;2023-07-30T07:12:26;16.95;;;2.67;;
41446;SDS011;27185;52.040;4.490;2023-07-30T07:15:11;15.95;;;2.58;;
41446;SDS011;27185;52.040;4.490;2023-07-30T07:17:57;14.63;;;3.15;;
41446;SDS011;27185;52.040;4.490;2023-07-30T07:20:42;15.20;;;2.65;;
41446;SDS011;27185;52.040;4.490;2023-07-30T07:23:28;14.50;;;2.90;;
41446;SDS011;27185;52.040;4.490;2023-07-30T07:26:14;16.48;;;2.47;;
41446;SDS011;27185;52.040;4.490;2023-07-30T07:28:59;13.48;;;2.50;;
41446;SDS011;27185;52.040;4.490;2023-07-30T07:31:45;9.95;;;1.80;;
41446;SDS011;27185;52.040;4.490;2023-07-30T07:34:31;8.90;;;0.90;;
41446;SDS011;27185;52.040;4.490;2023-07-30T07:37:16;10.02;;;1.45;;
41446;SDS011;27185;52.040;4.490;2023-07-30T07:40:03;10.17;;;1.80;;
41446;SDS011;27185;52.040;4.490;2023-07-30T07:42:49;8.50;;;1.65;;
41446;SDS011;27185;52.040;4.490;2023-07-30T07:45:35;7.57;;;1.20;;
41446;SDS011;27185;52.040;4.490;2023-07-30T07:48:21;9.43;;;1.50;;
41446;SDS011;27185;52.040;4.490;2023-07-30T07:51:07;9.52;;;1.45;;
41446;SDS011;27185;52.040;4.490;2023-07-30T07:53:54;7.20;;;1.02;;
41446;SDS011;27185;52.040;4.490;2023-07-30T07:56:39;5.35;;;1.20;;
41446;SDS011;27185;52.040;4.490;2023-07-30T07:59:25;10.73;;;1.20;;
41446;SDS011;27185;52.040;4.490;2023-07-30T08:02:12;8.52;;;1.38;;
41446;SDS011;27185;52.040;4.490;2023-07-30T08:04:58;6.85;;;1.30;;
41446;SDS011;27185;52.040;4.490;2023-07-30T08:07:44;10.30;;;1.30;;
41446;SDS011;27185;52.040;4.490;2023-07-30T08:10:31;6.63;;;0.95;;
41446;SDS011;27185;52.040;4.490;2023-07-30T08:13:16;8.82;;;0.90;;
41446;SDS011;27185;52.040;4.490;2023-07-30T08:16:02;8.23;;;1.08;;
41446;SDS011;27185;52.040;4.490;2023-07-30T08:18:48;9.88;;;1.83;;
41446;SDS011;27185;52.040;4.490;2023-07-30T08:21:33;8.88;;;1.33;;
41446;SDS011;27185;52.040;4.490;2023-07-30T08:24:19;8.88;;;1.50;;
41446;SDS011;27185;52.040;4.490;2023-07-30T08:27:04;13.48;;;1.25;;
41446;SDS011;27185;52.040;4.490;2023-07-30T08:29:50;11.40;;;1.90;;
41446;SDS011;27185;52.040;4.490;2023-07-30T08:32:36;6.80;;;1.00;;
41446;SDS011;27185;52.040;4.490;2023-07-30T08:35:21;7.88;;;1.38;;
41446;SDS011;27185;52.040;4.490;2023-07-30T08:38:07;11.30;;;1.55;;
41446;SDS011;27185;52.040;4.490;2023-07-30T08:40:52;10.23;;;1.50;;
41446;SDS011;27185;52.040;4.490;2023-07-30T08:43:38;7.90;;;1.50;;
41446;SDS011;27185;52.040;4.490;2023-07-30T08:46:24;13.05;;;1.85;;
41446;SDS011;27185;52.040;4.490;2023-07-30T08:49:09;9.20;;;1.20;;
41446;SDS011;27185;52.040;4.490;2023-07-30T08:51:55;10.35;;;1.40;;
41446;SDS011;27185;52.040;4.490;2023-07-30T08:54:41;8.60;;;1.35;;
41446;SDS011;27185;52.040;4.490;2023-07-30T08:57:27;9.68;;;1.35;;
41446;SDS011;27185;52.040;4.490;2023-07-30T09:00:15;7.38;;;1.30;;
41446;SDS011;27185;52.040;4.490;2023-07-30T09:03:04;12.93;;;2.17;;
41446;SDS011;27185;52.040;4.490;2023-07-30T09:05:50;7.03;;;1.13;;
41446;SDS011;27185;52.040;4.490;2023-07-30T09:08:35;8.15;;;1.58;;
41446;SDS011;27185;52.040;4.490;2023-07-30T09:11:21;10.65;;;1.50;;
41446;SDS011;27185;52.040;4.490;2023-07-30T09:14:12;9.02;;;1.50;;
41446;SDS011;27185;52.040;4.490;2023-07-30T09:16:57;8.00;;;1.25;;
41446;SDS011;27185;52.040;4.490;2023-07-30T09:19:43;12.02;;;1.23;;
41446;SDS011;27185;52.040;4.490;2023-07-30T09:22:30;5.82;;;1.15;;
41446;SDS011;27185;52.040;4.490;2023-07-30T09:25:18;8.05;;;1.42;;
41446;SDS011;27185;52.040;4.490;2023-07-30T09:28:07;5.72;;;0.80;;
41446;SDS011;27185;52.040;4.490;2023-07-30T09:30:59;6.88;;;1.27;;
41446;SDS011;27185;52.040;4.490;2023-07-30T09:33:48;7.47;;;1.05;;
41446;SDS011;27185;52.040;4.490;2023-07-30T09:36:34;4.10;;;0.88;;
41446;SDS011;27185;52.040;4.490;2023-07-30T09:39:21;10.15;;;1.50;;
41446;SDS011;27185;52.040;4.490;2023-07-30T09:42:08;6.95;;;1.20;;
41446;SDS011;27185;52.040;4.490;2023-07-30T09:44:54;6.78;;;1.10;;
41446;SDS011;27185;52.040;4.490;2023-07-30T09:47:48;8.07;;;0.93;;
41446;SDS011;27185;52.040;4.490;2023-07-30T09:50:35;5.22;;;1.25;;
41446;SDS011;27185;52.040;4.490;2023-07-30T09:56:08;5.97;;;1.08;;
41446;SDS011;27185;52.040;4.490;2023-07-30T09:58:54;6.75;;;1.17;;
41446;SDS011;27185;52.040;4.490;2023-07-30T10:01:43;10.00;;;1.05;;
41446;SDS011;27185;52.040;4.490;2023-07-30T10:04:31;7.05;;;1.35;;
41446;SDS011;27185;52.040;4.490;2023-07-30T10:07:19;6.03;;;0.90;;
41446;SDS011;27185;52.040;4.490;2023-07-30T10:10:07;7.72;;;0.93;;
41446;SDS011;27185;52.040;4.490;2023-07-30T10:12:53;4.70;;;0.82;;
41446;SDS011;27185;52.040;4.490;2023-07-30T10:15:41;7.75;;;1.23;;
41446;SDS011;27185;52.040;4.490;2023-07-30T10:18:38;8.02;;;1.08;;
41446;SDS011;27185;52.040;4.490;2023-07-30T10:21:25;10.20;;;1.33;;
41446;SDS011;27185;52.040;4.490;2023-07-30T10:24:12;9.63;;;1.60;;
41446;SDS011;27185;52.040;4.490;2023-07-30T10:26:57;7.63;;;1.33;;
41446;SDS011;27185;52.040;4.490;2023-07-30T10:30:07;9.00;;;1.35;;
41446;SDS011;27185;52.040;4.490;2023-07-30T10:35:41;5.65;;;1.20;;
41446;SDS011;27185;52.040;4.490;2023-07-30T10:38:28;8.30;;;1.35;;
41446;SDS011;27185;52.040;4.490;2023-07-30T10:41:15;11.30;;;1.17;;
41446;SDS011;27185;52.040;4.490;2023-07-30T10:44:03;7.53;;;1.00;;
41446;SDS011;27185;52.040;4.490;2023-07-30T10:46:49;5.72;;;0.75;;
41446;SDS011;27185;52.040;4.490;2023-07-30T10:49:36;7.40;;;1.00;;
41446;SDS011;27185;52.040;4.490;2023-07-30T10:52:26;5.82;;;1.13;;
41446;SDS011;27185;52.040;4.490;2023-07-30T10:55:11;7.82;;;1.00;;
41446;SDS011;27185;52.040;4.490;2023-07-30T10:57:57;5.90;;;0.80;;
41446;SDS011;27185;52.040;4.490;2023-07-30T11:00:44;8.85;;;1.15;;
41446;SDS011;27185;52.040;4.490;2023-07-30T11:03:30;6.07;;;0.82;;
41446;SDS011;27185;52.040;4.490;2023-07-30T11:06:23;6.60;;;0.90;;
41446;SDS011;27185;52.040;4.490;2023-07-30T11:09:17;6.97;;;1.15;;
41446;SDS011;27185;52.040;4.490;2023-07-30T11:12:08;4.95;;;1.02;;
41446;SDS011;27185;52.040;4.490;2023-07-30T11:15:02;7.45;;;0.82;;
41446;SDS011;27185;52.040;4.490;2023-07-30T11:17:48;8.50;;;1.17;;
41446;SDS011;27185;52.040;4.490;2023-07-30T11:20:36;6.47;;;0.80;;
41446;SDS011;27185;52.040;4.490;2023-07-30T11:23:23;7.47;;;1.20;;
41446;SDS011;27185;52.040;4.490;2023-07-30T11:26:09;7.88;;;1.10;;
41446;SDS011;27185;52.040;4.490;2023-07-30T11:28:59;6.47;;;1.08;;
41446;SDS011;27185;52.040;4.490;2023-07-30T11:31:59;7.57;;;0.82;;
41446;SDS011;27185;52.040;4.490;2023-07-30T11:34:47;6.50;;;0.98;;
41446;SDS011;27185;52.040;4.490;2023-07-30T11:37:33;6.43;;;1.38;;
41446;SDS011;27185;52.040;4.490;2023-07-30T11:40:18;6.03;;;0.68;;
41446;SDS011;27185;52.040;4.490;2023-07-30T11:43:04;5.43;;;0.90;;
41446;SDS011;27185;52.040;4.490;2023-07-30T11:46:05;5.35;;;0.80;;
41446;SDS011;27185;52.040;4.490;2023-07-30T11:49:14;6.25;;;1.02;;
41446;SDS011;27185;52.040;4.490;2023-07-30T11:52:06;10.13;;;0.98;;
41446;SDS011;27185;52.040;4.490;2023-07-30T11:55:03;5.43;;;0.80;;
41446;SDS011;27185;52.040;4.490;2023-07-30T11:57:48;5.60;;;0.80;;
41446;SDS011;27185;52.040;4.490;2023-07-30T12:00:35;3.80;;;0.68;;
41446;SDS011;27185;52.040;4.490;2023-07-30T12:06:11;7.38;;;0.80;;
41446;SDS011;27185;52.040;4.490;2023-07-30T12:08:57;5.72;;;0.80;;
41446;SDS011;27185;52.040;4.490;2023-07-30T12:11:53;5.07;;;0.80;;
41446;SDS011;27185;52.040;4.490;2023-07-30T12:14:44;3.10;;;0.50;;
41446;SDS011;27185;52.040;4.490;2023-07-30T12:17:33;4.00;;;0.65;;
41446;SDS011;27185;52.040;4.490;2023-07-30T12:20:18;6.18;;;0.70;;
41446;SDS011;27185;52.040;4.490;2023-07-30T12:23:04;5.03;;;0.57;;
41446;SDS011;27185;52.040;4.490;2023-07-30T12:25:50;4.45;;;0.60;;
41446;SDS011;27185;52.040;4.490;2023-07-30T12:28:36;3.33;;;0.60;;
41446;SDS011;27185;52.040;4.490;2023-07-30T12:31:21;3.78;;;0.80;;
41446;SDS011;27185;52.040;4.490;2023-07-30T12:34:07;4.07;;;0.60;;
41446;SDS011;27185;52.040;4.490;2023-07-30T12:36:53;5.75;;;0.85;;
41446;SDS011;27185;52.040;4.490;2023-07-30T12:39:39;4.60;;;1.00;;
41446;SDS011;27185;52.040;4.490;2023-07-30T12:42:24;7.00;;;1.30;;
41446;SDS011;27185;52.040;4.490;2023-07-30T12:45:10;6.05;;;0.98;;
41446;SDS011;27185;52.040;4.490;2023-07-30T12:47:56;5.70;;;0.68;;
41446;SDS011;27185;52.040;4.490;2023-07-30T12:50:43;5.57;;;0.93;;
41446;SDS011;27185;52.040;4.490;2023-07-30T12:53:28;4.32;;;0.77;;
41446;SDS011;27185;52.040;4.490;2023-07-30T12:56:14;4.18;;;0.65;;
41446;SDS011;27185;52.040;4.490;2023-07-30T12:59:00;5.55;;;0.80;;
41446;SDS011;27185;52.040;4.490;2023-07-30T13:01:46;7.35;;;1.02;;
41446;SDS011;27185;52.040;4.490;2023-07-30T13:04:31;7.88;;;1.10;;
41446;SDS011;27185;52.040;4.490;2023-07-30T13:07:17;5.03;;;0.77;;
41446;SDS011;27185;52.040;4.490;2023-07-30T13:10:03;11.25;;;1.55;;
41446;SDS011;27185;52.040;4.490;2023-07-30T13:12:53;6.43;;;0.90;;
41446;SDS011;27185;52.040;4.490;2023-07-30T13:15:39;5.90;;;0.82;;
41446;SDS011;27185;52.040;4.490;2023-07-30T13:18:25;11.18;;;1.35;;
41446;SDS011;27185;52.040;4.490;2023-07-30T13:21:10;8.43;;;1.33;;
41446;SDS011;27185;52.040;4.490;2023-07-30T13:23:56;9.73;;;1.33;;
41446;SDS011;27185;52.040;4.490;2023-07-30T13:26:41;7.03;;;1.30;;
41446;SDS011;27185;52.040;4.490;2023-07-30T13:29:27;6.05;;;0.98;;
41446;SDS011;27185;52.040;4.490;2023-07-30T13:32:13;9.10;;;1.40;;
41446;SDS011;27185;52.040;4.490;2023-07-30T13:34:58;7.95;;;1.35;;
41446;SDS011;27185;52.040;4.490;2023-07-30T13:37:44;10.63;;;1.42;;
41446;SDS011;27185;52.040;4.490;2023-07-30T13:40:29;11.57;;;1.52;;
41446;SDS011;27185;52.040;4.490;2023-07-30T13:43:15;11.48;;;1.60;;
41446;SDS011;27185;52.040;4.490;2023-07-30T13:46:01;9.23;;;2.05;;
41446;SDS011;27185;52.040;4.490;2023-07-30T13:48:46;7.20;;;1.33;;
41446;SDS011;27185;52.040;4.490;2023-07-30T13:51:32;7.68;;;1.40;;
41446;SDS011;27185;52.040;4.490;2023-07-30T13:54:18;8.52;;;1.40;;
41446;SDS011;27185;52.040;4.490;2023-07-30T13:57:03;15.95;;;2.33;;
41446;SDS011;27185;52.040;4.490;2023-07-30T13:59:50;9.40;;;1.42;;
41446;SDS011;27185;52.040;4.490;2023-07-30T14:02:36;9.63;;;1.63;;
41446;SDS011;27185;52.040;4.490;2023-07-30T14:05:22;8.35;;;1.58;;
41446;SDS011;27185;52.040;4.490;2023-07-30T14:08:08;8.98;;;1.58;;
41446;SDS011;27185;52.040;4.490;2023-07-30T14:10:53;11.60;;;1.88;;
41446;SDS011;27185;52.040;4.490;2023-07-30T14:13:39;10.75;;;2.28;;
41446;SDS011;27185;52.040;4.490;2023-07-30T14:16:24;11.25;;;2.05;;
41446;SDS011;27185;52.040;4.490;2023-07-30T14:19:10;10.48;;;2.15;;
41446;SDS011;27185;52.040;4.490;2023-07-30T14:21:56;11.25;;;2.20;;
41446;SDS011;27185;52.040;4.490;2023-07-30T14:24:41;15.65;;;2.45;;
41446;SDS011;27185;52.040;4.490;2023-07-30T14:27:29;16.38;;;2.53;;
41446;SDS011;27185;52.040;4.490;2023-07-30T14:30:15;11.00;;;2.10;;
41446;SDS011;27185;52.040;4.490;2023-07-30T14:33:03;13.23;;;2.28;;
41446;SDS011;27185;52.040;4.490;2023-07-30T14:35:49;10.27;;;2.22;;
41446;SDS011;27185;52.040;4.490;2023-07-30T14:38:35;15.02;;;2.63;;
41446;SDS011;27185;52.040;4.490;2023-07-30T14:41:20;11.40;;;3.05;;
41446;SDS011;27185;52.040;4.490;2023-07-30T14:44:06;15.00;;;2.72;;
41446;SDS011;27185;52.040;4.490;2023-07-30T14:46:51;16.52;;;3.17;;
41446;SDS011;27185;52.040;4.490;2023-07-30T14:49:38;17.30;;;3.30;;
41446;SDS011;27185;52.040;4.490;2023-07-30T14:52:23;15.55;;;3.20;;
41446;SDS011;27185;52.040;4.490;2023-07-30T14:55:09;19.95;;;3.28;;
41446;SDS011;27185;52.040;4.490;2023-07-30T14:57:55;21.58;;;4.05;;
41446;SDS011;27185;52.040;4.490;2023-07-30T15:00:40;19.88;;;3.92;;
41446;SDS011;27185;52.040;4.490;2023-07-30T15:06:14;17.70;;;4.30;;
41446;SDS011;27185;52.040;4.490;2023-07-30T15:08:59;16.80;;;3.63;;
41446;SDS011;27185;52.040;4.490;2023-07-30T15:11:45;15.02;;;3.72;;
41446;SDS011;27185;52.040;4.490;2023-07-30T15:14:31;17.02;;;3.03;;
41446;SDS011;27185;52.040;4.490;2023-07-30T15:17:17;15.30;;;3.30;;
41446;SDS011;27185;52.040;4.490;2023-07-30T15:20:02;17.65;;;4.55;;
41446;SDS011;27185;52.040;4.490;2023-07-30T15:22:48;19.45;;;3.67;;
41446;SDS011;27185;52.040;4.490;2023-07-30T15:25:35;18.53;;;3.63;;
41446;SDS011;27185;52.040;4.490;2023-07-30T15:28:21;14.65;;;3.78;;
41446;SDS011;27185;52.040;4.490;2023-07-30T15:31:06;17.35;;;3.10;;
41446;SDS011;27185;52.040;4.490;2023-07-30T15:33:52;20.83;;;4.32;;
41446;SDS011;27185;52.040;4.490;2023-07-30T15:36:38;20.40;;;4.07;;
41446;SDS011;27185;52.040;4.490;2023-07-30T15:39:23;17.10;;;4.20;;
41446;SDS011;27185;52.040;4.490;2023-07-30T15:42:10;16.02;;;4.03;;
41446;SDS011;27185;52.040;4.490;2023-07-30T15:44:56;16.67;;;5.03;;
41446;SDS011;27185;52.040;4.490;2023-07-30T15:47:41;16.17;;;3.58;;
41446;SDS011;27185;52.040;4.490;2023-07-30T15:50:27;15.88;;;3.35;;
41446;SDS011;27185;52.040;4.490;2023-07-30T15:53:13;19.63;;;3.80;;
41446;SDS011;27185;52.040;4.490;2023-07-30T15:55:59;18.35;;;3.80;;
41446;SDS011;27185;52.040;4.490;2023-07-30T15:58:47;15.88;;;3.72;;
41446;SDS011;27185;52.040;4.490;2023-07-30T16:01:33;12.15;;;2.10;;
41446;SDS011;27185;52.040;4.490;2023-07-30T16:04:18;7.75;;;1.38;;
41446;SDS011;27185;52.040;4.490;2023-07-30T16:07:04;8.13;;;1.40;;
41446;SDS011;27185;52.040;4.490;2023-07-30T16:09:50;5.32;;;1.10;;
41446;SDS011;27185;52.040;4.490;2023-07-30T16:12:36;6.78;;;1.23;;
41446;SDS011;27185;52.040;4.490;2023-07-30T16:15:26;5.70;;;0.80;;
41446;SDS011;27185;52.040;4.490;2023-07-30T16:18:12;4.80;;;0.70;;
41446;SDS011;27185;52.040;4.490;2023-07-30T16:21:04;4.47;;;0.85;;
41446;SDS011;27185;52.040;4.490;2023-07-30T16:23:50;4.88;;;0.90;;
41446;SDS011;27185;52.040;4.490;2023-07-30T16:26:36;6.75;;;1.27;;
41446;SDS011;27185;52.040;4.490;2023-07-30T16:29:21;7.75;;;1.20;;
41446;SDS011;27185;52.040;4.490;2023-07-30T16:32:07;5.28;;;1.02;;
41446;SDS011;27185;52.040;4.490;2023-07-30T16:34:53;5.68;;;1.20;;
41446;SDS011;27185;52.040;4.490;2023-07-30T16:37:39;6.18;;;1.20;;
41446;SDS011;27185;52.040;4.490;2023-07-30T16:40:24;5.50;;;1.20;;
41446;SDS011;27185;52.040;4.490;2023-07-30T16:43:10;5.85;;;0.93;;
41446;SDS011;27185;52.040;4.490;2023-07-30T16:45:59;6.82;;;1.30;;